DW3733 Luzzi (cosenza) IT current weather conditions

sailwx.info

Wind from 239 at 3 knots gusting 10

Air temperature 10.0° C
Dewpoint 6.3° C

Last reported at 2015-Mar-05 10:43 UTC.
Time now 2015-Mar-05 11:55 UTC

Location: N 39°27' E 016°16'.
View on Google Maps.

See reports from other nearby stations

  
Tides and Currents Weather Stations Pressure Air Temp Water Temp Dewpoint Dewpoint Depression Visibility Wind Speed Wind Dir Waves Ship Positions
date/time (UTC)wind fromknots sea level pressurealtimeterstation pressurevisibilityair tempwater tempwave heightnotes
2015-Mar-05 10:43 239 3 gusting 10 10.0
2015-Mar-05 10:33 180 7 gusting 13 10.0
2015-Mar-05 10:13 202 6 gusting 13 10.6
2015-Mar-05 10:03 263 6 gusting 17 11.1
2015-Mar-05 09:53 271 4 gusting 8 11.1
2015-Mar-05 09:43 216 5 gusting 13 11.1
2015-Mar-05 09:33 154 5 gusting 7 11.1
2015-Mar-05 09:23 217 3 gusting 10 11.1
2015-Mar-05 09:13 191 6 gusting 11 11.1
2015-Mar-05 09:03 180 6 gusting 11 11.1
2015-Mar-05 08:40 225 5 gusting 11 11.1
2015-Mar-05 08:30 283 2 gusting 6 11.7
2015-Mar-05 08:03 181 1 gusting 10 12.2
2015-Mar-05 07:53 225 4 gusting 10 12.2
2015-Mar-05 07:43 135 4 gusting 12 12.2
2015-Mar-05 07:33 208 6 gusting 13 12.8
2015-Mar-05 07:23 179 4 gusting 8 13.3
2015-Mar-05 07:13 225 3 gusting 6 13.3
2015-Mar-05 07:03 180 4 gusting 8 13.3
2015-Mar-05 06:53 192 3 gusting 11 13.3
2015-Mar-05 06:43 203 4 gusting 8 13.3
2015-Mar-05 06:33 155 4 gusting 10 13.3
2015-Mar-05 06:23 184 3 gusting 13 13.9
2015-Mar-05 06:13 186 5 gusting 17 13.3
2015-Mar-05 06:03 315 5 gusting 10 13.3
2015-Mar-05 05:53 182 2 gusting 6 13.3
2015-Mar-05 05:43 207 4 gusting 10 13.3
2015-Mar-05 05:33 206 2 gusting 6 13.3
2015-Mar-05 05:23 215 1 gusting 8 13.3
2015-Mar-05 05:13 204 4 gusting 10 13.3
2015-Mar-05 05:03 244 3 gusting 7 13.3
2015-Mar-05 04:53 252 2 gusting 7 13.3
2015-Mar-05 04:43 048 2 gusting 10 13.3
2015-Mar-05 04:33 140 6 gusting 13 13.9
2015-Mar-05 04:23 180 4 gusting 8 13.9
2015-Mar-05 04:13 158 6 gusting 8 13.9
2015-Mar-05 04:03 148 3 gusting 8 13.9
2015-Mar-05 03:53 135 5 gusting 12 13.9
2015-Mar-05 03:43 180 4 gusting 7 13.9
2015-Mar-05 03:33 156 3 gusting 8 13.9
2015-Mar-05 03:23 226 5 gusting 8 13.9
2015-Mar-05 03:13 213 4 gusting 12 14.4
2015-Mar-05 03:03 180 6 gusting 19 14.4
2015-Mar-05 02:53 073 5 gusting 13 14.4
2015-Mar-05 02:43 315 2 gusting 6 13.3
2015-Mar-05 02:33 286 1 gusting 2 12.8
2015-Mar-05 02:23 086 0 gusting 2 12.2
2015-Mar-05 02:13 350 0 gusting 2 12.2
2015-Mar-05 02:03 326 12.2
2015-Mar-05 01:53 281 0 gusting 4 12.2
2015-Mar-05 01:43 343 0 gusting 4 12.8
2015-Mar-05 01:33 107 1 gusting 4 12.2
2015-Mar-05 01:23 090 1 gusting 2 11.7
2015-Mar-05 01:13 349 0 gusting 5 11.7
2015-Mar-05 01:03 045 0 gusting 2 11.7
2015-Mar-05 00:53 11.7
2015-Mar-05 00:43 090 0 gusting 2 11.7
2015-Mar-05 00:33 121 11.7
2015-Mar-05 00:23 282 12.2
2015-Mar-05 00:13 242 0 gusting 1 12.2
2015-Mar-05 00:03 358 12.2
2015-Mar-04 23:53 202 0 gusting 2 12.2
2015-Mar-04 23:43 037 1 gusting 2 12.2
2015-Mar-04 23:33 357 0 gusting 1 12.2
2015-Mar-04 23:23 135 0 gusting 2 12.2
2015-Mar-04 23:13 12.2
2015-Mar-04 23:03 315 12.2
2015-Mar-04 22:53 045 2 gusting 5 12.2
2015-Mar-04 22:43 345 1 gusting 5 12.8
2015-Mar-04 22:33 090 1 gusting 5 13.3
2015-Mar-04 22:23 342 0 gusting 2 15.0
2015-Mar-04 22:13 15.0
2015-Mar-04 22:03 010 0 gusting 1 15.6
2015-Mar-04 21:53 103 15.6
2015-Mar-04 21:43 105 0 gusting 5 15.6
2015-Mar-04 21:33 029 0 gusting 2 15.6
2015-Mar-04 21:23 149 1 gusting 4 15.6
2015-Mar-04 21:13 130 1 gusting 4 15.6
2015-Mar-04 21:03 090 0 gusting 2 15.6
2015-Mar-04 20:53 090 15.6
2015-Mar-04 20:43 101 0 gusting 2 15.6
2015-Mar-04 20:33 205 1 gusting 4 16.1
2015-Mar-04 20:23 242 1 gusting 5 16.1
2015-Mar-04 20:13 219 2 gusting 5 16.1
2015-Mar-04 20:03 302 2 gusting 6 15.6
2015-Mar-04 19:53 180 1 gusting 4 15.6
2015-Mar-04 19:43 015 0 gusting 2 15.6
2015-Mar-04 19:33 287 0 gusting 2 15.6
2015-Mar-04 19:23 159 0 gusting 4 15.0
2015-Mar-04 19:13 210 0 gusting 4 15.0
2015-Mar-04 19:03 315 0 gusting 2 15.6
2015-Mar-04 18:53 213 0 gusting 4 15.6
2015-Mar-04 18:43 265 0 gusting 2 15.6
2015-Mar-04 18:33 157 0 gusting 2 15.6
2015-Mar-04 18:23 202 1 gusting 2 15.6
2015-Mar-04 18:13 076 0 gusting 2 15.6
2015-Mar-04 18:03 090 2 gusting 2 16.1
2015-Mar-04 17:53 270 0 gusting 2 17.2
2015-Mar-04 17:43 120 0 gusting 5 17.2
2015-Mar-04 17:33 140 0 gusting 5 17.8
2015-Mar-04 17:23 090 0 gusting 8 18.3
2015-Mar-04 17:13 237 2 gusting 7 18.3
2015-Mar-04 17:03 225 4 gusting 10 6.1
2015-Mar-04 16:53 174 2 gusting 6 3.9
2015-Mar-04 15:53 180 1 gusting 5 19.4
2015-Mar-04 15:43 234 0 gusting 1 19.4
2015-Mar-04 15:33 034 20.0
2015-Mar-04 14:53 163 0 gusting 2 20.0
2015-Mar-04 14:43 180 0 gusting 2 20.6
2015-Mar-04 14:33 197 2 gusting 5 20.6
2015-Mar-04 14:23 358 1 gusting 5 20.6
2015-Mar-04 14:13 180 0 gusting 5 21.1
2015-Mar-04 14:03 212 1 gusting 5 21.1
2015-Mar-04 13:53 260 2 gusting 5 21.1
2015-Mar-04 13:43 261 1 gusting 6 21.7
2015-Mar-04 13:33 180 2 gusting 6 21.7
2015-Mar-04 13:23 056 2 gusting 6 21.7
2015-Mar-04 13:13 225 1 gusting 4 21.7
2015-Mar-04 13:03 045 1 gusting 5 21.7
2015-Mar-04 12:53 349 2 gusting 8 21.7
2015-Mar-04 12:43 012 2 gusting 5 22.2
2015-Mar-04 12:33 013 1 gusting 6 22.2
2015-Mar-04 12:23 063 1 gusting 6 22.2
2015-Mar-04 12:13 090 0 gusting 6 22.2
2015-Mar-04 12:03 286 1 gusting 5 21.7
2015-Mar-04 11:53 22.2
2015-Mar-04 11:43 21.7
2015-Mar-04 11:33 081 3 gusting 6 21.7
2015-Mar-04 11:23 225 0 gusting 6 22.2
2015-Mar-04 11:13 328 2 gusting 6 22.2
2015-Mar-04 11:03 180 0 gusting 5 22.2
2015-Mar-04 10:53 248 2 gusting 5 22.2
2015-Mar-04 10:43 193 2 gusting 6 21.7
2015-Mar-04 10:33 250 3 gusting 7 21.7
2015-Mar-04 10:23 183 2 gusting 7 21.7
2015-Mar-04 10:13 211 2 gusting 8 21.1
2015-Mar-04 10:03 225 4 gusting 8 21.1
2015-Mar-04 09:53 180 2 gusting 8 20.6
2015-Mar-04 09:43 251 4 gusting 7 20.6
2015-Mar-04 09:33 226 2 gusting 6 19.4
2015-Mar-04 09:23 146 1 gusting 4 18.3
2015-Mar-04 09:13 123 1 gusting 2 17.8
2015-Mar-04 09:03 315 0 gusting 4 17.2
2015-Mar-04 08:53 328 0 gusting 2 16.7
2015-Mar-04 08:43 027 15.6
2015-Mar-04 08:33 15.0
2015-Mar-04 08:23 355 0 gusting 2 15.0
2015-Mar-04 08:13 077 0 gusting 2 14.4
2015-Mar-04 08:03 343 0 gusting 2 15.0
2015-Mar-04 07:53 283 15.0
2015-Mar-04 07:43 214 0 gusting 1 15.0
2015-Mar-04 07:33 043 13.9
2015-Mar-04 07:23 173 1 gusting 2 13.3
2015-Mar-04 07:13 129 12.8
2015-Mar-04 07:03 090 0 gusting 1 11.7
2015-Mar-04 06:53 090 0 gusting 2 11.1
2015-Mar-04 06:43 090 0 gusting 2 10.0
2015-Mar-04 06:33 070 1 gusting 4 8.9
2015-Mar-04 06:23 088 1 gusting 2 7.8
2015-Mar-04 06:13 090 2 gusting 2 7.8
2015-Mar-04 06:03 090 1 gusting 2 7.8
2015-Mar-04 05:53 090 1 gusting 2 8.3
2015-Mar-04 05:43 087 0 gusting 2 8.9
2015-Mar-04 05:33 045 0 gusting 0 8.9
2015-Mar-04 05:23 135 9.4
2015-Mar-04 05:13 058 9.4
2015-Mar-04 05:03 270 9.4
2015-Mar-04 04:53 090 0 gusting 2 9.4
2015-Mar-04 04:43 090 0 gusting 1 9.4
2015-Mar-04 04:33 090 9.4
2015-Mar-04 04:23 132 0 gusting 2 9.4
2015-Mar-04 04:13 225 9.4
2015-Mar-04 04:03 180 0 gusting 1 9.4
2015-Mar-04 03:53 225 9.4
2015-Mar-04 03:43 295 0 gusting 2 10.0
2015-Mar-04 03:33 193 10.0
2015-Mar-04 03:23 135 1 gusting 4 9.4
2015-Mar-04 03:13 171 1 gusting 4 10.0
2015-Mar-04 03:03 135 0 gusting 5 10.0
2015-Mar-04 02:53 200 1 gusting 5 10.0
2015-Mar-04 02:43 228 0 gusting 2 10.0
2015-Mar-04 02:33 218 1 gusting 2 10.0
2015-Mar-04 02:23 215 10.0
2015-Mar-04 02:13 231 10.0
2015-Mar-04 02:03 135 1 gusting 2 9.4
2015-Mar-04 01:53 082 9.4
2015-Mar-04 01:43 225 0 gusting 1 9.4
2015-Mar-04 01:33 090 0 gusting 1 9.4
2015-Mar-04 01:23 073 8.9
2015-Mar-04 01:13 045 8.9
2015-Mar-04 01:03 090 8.9
2015-Mar-04 00:53 090 0 gusting 0 8.9
2015-Mar-04 00:43 090 8.9
2015-Mar-04 00:33 138 1 gusting 2 9.4
2015-Mar-04 00:23 032 10.0
2015-Mar-04 00:13 090 10.6
2015-Mar-04 00:03 090 11.1
2015-Mar-03 23:53 090 0 gusting 2 11.1
2015-Mar-03 23:43 090 0 gusting 2 11.1
2015-Mar-03 23:33 067 0 gusting 1 11.1
2015-Mar-03 23:23 139 0 gusting 2 11.7
2015-Mar-03 23:13 213 0 gusting 2 11.7
2015-Mar-03 23:03 090 0 gusting 1 11.7
2015-Mar-03 22:53 217 0 gusting 2 11.7
2015-Mar-03 22:43 236 1 gusting 2 11.7
2015-Mar-03 22:33 220 0 gusting 2 11.7
2015-Mar-03 22:23 167 11.1
2015-Mar-03 22:13 225 11.1
2015-Mar-03 22:03 135 11.1
2015-Mar-03 21:53 090 1 gusting 2 11.1
2015-Mar-03 21:43 225 11.7
2015-Mar-03 21:33 188 11.7
2015-Mar-03 21:23 135 0 gusting 2 11.1
2015-Mar-03 21:13 056 0 gusting 2 11.7
2015-Mar-03 21:03 11.7
2015-Mar-03 20:53 225 0 gusting 2 11.7
2015-Mar-03 20:43 153 0 gusting 2 12.2
2015-Mar-03 20:33 180 1 gusting 4 12.8
2015-Mar-03 20:23 217 2 gusting 5 12.8
2015-Mar-03 20:13 225 4 gusting 5 12.8
2015-Mar-03 20:03 104 1 gusting 4 12.8
2015-Mar-03 19:53 213 1 gusting 4 12.8
2015-Mar-03 19:43 148 0 gusting 2 12.8
2015-Mar-03 19:33 135 0 gusting 4 13.3
2015-Mar-03 19:23 292 1 gusting 2 13.3
2015-Mar-03 19:13 278 0 gusting 5 13.3
2015-Mar-03 19:03 225 2 gusting 4 12.8
2015-Mar-03 18:53 207 0 gusting 2 12.8
2015-Mar-03 18:43 254 13.3
2015-Mar-03 18:33 220 0 gusting 4 13.3
2015-Mar-03 18:23 142 1 gusting 5 12.2
2015-Mar-03 18:13 135 0 gusting 2 12.2
2015-Mar-03 18:03 090 12.8
2015-Mar-03 17:53 090 1 gusting 2 13.9
2015-Mar-03 17:43 215 0 gusting 2 14.4
2015-Mar-03 17:33 090 0 gusting 4 15.0
2015-Mar-03 17:23 170 1 gusting 4 14.4
2015-Mar-03 17:13 102 0 gusting 4 14.4
2015-Mar-03 17:03 090 0 gusting 2 14.4
2015-Mar-03 16:53 071 0 gusting 2 15.0
2015-Mar-03 16:43 090 0 gusting 2 16.7
2015-Mar-03 16:33 082 0 gusting 2 17.2
2015-Mar-03 16:23 17.2
2015-Mar-03 16:13 208 0 gusting 2 17.8
2015-Mar-03 16:03 163 0 gusting 2 17.8
2015-Mar-03 15:53 337 0 gusting 6 17.8
2015-Mar-03 15:43 095 0 gusting 5 17.8
2015-Mar-03 15:33 012 1 gusting 8 17.8
2015-Mar-03 15:23 298 1 gusting 6 18.3
2015-Mar-03 15:13 298 1 gusting 5 18.3
2015-Mar-03 15:03 180 1 gusting 6 18.9
2015-Mar-03 14:53 18.9
2015-Mar-03 14:43 007 1 gusting 6 18.9
2015-Mar-03 14:33 113 1 gusting 6 19.4
2015-Mar-03 14:23 031 1 gusting 8 19.4
2015-Mar-03 14:13 175 2 gusting 8 20.0
2015-Mar-03 14:03 198 4 gusting 10 20.0
2015-Mar-03 13:53 200 3 gusting 8 20.0
2015-Mar-03 13:43 225 4 gusting 8 20.0
2015-Mar-03 13:33 180 4 gusting 11 20.0
2015-Mar-03 13:23 225 3 gusting 7 20.0
2015-Mar-03 13:13 210 4 gusting 7 20.6
2015-Mar-03 13:03 180 2 gusting 8 20.0
2015-Mar-03 12:53 215 4 gusting 10 20.0
2015-Mar-03 12:43 263 5 gusting 10 20.6
2015-Mar-03 12:33 225 2 gusting 7 20.6
2015-Mar-03 12:23 213 2 gusting 6 20.6
2015-Mar-03 12:13 188 4 gusting 8 20.6
2015-Mar-03 12:03 249 2 gusting 8 20.6
2015-Mar-03 11:53 210 3 gusting 11 20.6
2015-Mar-03 11:43 182 4 gusting 8 20.6
2015-Mar-03 11:33 213 3 gusting 8 20.6
2015-Mar-03 11:23 250 3 gusting 11 20.6